sensor_id;sensor_type;location;lat;lon;timestamp;temperature;humidity
64843;DHT22;51310;52.198;5.422;2022-07-29T00:00:55;15.80;68.70
64843;DHT22;51310;52.198;5.422;2022-07-29T00:03:21;15.90;69.10
64843;DHT22;51310;52.198;5.422;2022-07-29T00:05:47;16.70;69.40
64843;DHT22;51310;52.198;5.422;2022-07-29T00:08:13;15.80;69.20
64843;DHT22;51310;52.198;5.422;2022-07-29T00:10:41;15.70;69.60
64843;DHT22;51310;52.198;5.422;2022-07-29T00:13:07;17.10;70.70
64843;DHT22;51310;52.198;5.422;2022-07-29T00:15:33;15.70;70.40
64843;DHT22;51310;52.198;5.422;2022-07-29T00:17:59;15.60;70.80
64843;DHT22;51310;52.198;5.422;2022-07-29T00:20:25;15.60;71.20
64843;DHT22;51310;52.198;5.422;2022-07-29T00:22:51;15.50;71.70
64843;DHT22;51310;52.198;5.422;2022-07-29T00:25:17;15.50;71.70
64843;DHT22;51310;52.198;5.422;2022-07-29T00:27:43;15.50;72.20
64843;DHT22;51310;52.198;5.422;2022-07-29T00:30:09;15.40;71.90
64843;DHT22;51310;52.198;5.422;2022-07-29T00:32:35;15.50;72.70
64843;DHT22;51310;52.198;5.422;2022-07-29T00:35:01;16.00;73.30
64843;DHT22;51310;52.198;5.422;2022-07-29T00:37:45;15.40;73.10
64843;DHT22;51310;52.198;5.422;2022-07-29T00:40:11;15.40;73.30
64843;DHT22;51310;52.198;5.422;2022-07-29T00:42:48;17.10;74.70
64843;DHT22;51310;52.198;5.422;2022-07-29T00:45:16;15.40;72.90
64843;DHT22;51310;52.198;5.422;2022-07-29T00:47:46;15.40;74.00
64843;DHT22;51310;52.198;5.422;2022-07-29T00:50:13;15.40;74.00
64843;DHT22;51310;52.198;5.422;2022-07-29T00:52:41;16.90;75.40
64843;DHT22;51310;52.198;5.422;2022-07-29T00:55:10;15.40;74.40
64843;DHT22;51310;52.198;5.422;2022-07-29T00:57:40;15.40;74.90
64843;DHT22;51310;52.198;5.422;2022-07-29T01:00:11;15.30;73.90
64843;DHT22;51310;52.198;5.422;2022-07-29T01:02:43;15.30;75.00
64843;DHT22;51310;52.198;5.422;2022-07-29T01:05:11;16.20;75.20
64843;DHT22;51310;52.198;5.422;2022-07-29T01:07:39;16.50;75.40
64843;DHT22;51310;52.198;5.422;2022-07-29T01:10:08;15.40;75.90
64843;DHT22;51310;52.198;5.422;2022-07-29T01:12:38;15.30;75.00
64843;DHT22;51310;52.198;5.422;2022-07-29T01:15:07;16.80;76.00
64843;DHT22;51310;52.198;5.422;2022-07-29T01:20:41;15.30;75.10
64843;DHT22;51310;52.198;5.422;2022-07-29T01:23:41;15.30;74.50
64843;DHT22;51310;52.198;5.422;2022-07-29T01:29:30;15.20;75.90
64843;DHT22;51310;52.198;5.422;2022-07-29T01:32:18;15.20;76.30
64843;DHT22;51310;52.198;5.422;2022-07-29T01:34:52;15.10;76.40
64843;DHT22;51310;52.198;5.422;2022-07-29T01:37:45;15.10;76.90
64843;DHT22;51310;52.198;5.422;2022-07-29T01:40:43;18.80;79.10
64843;DHT22;51310;52.198;5.422;2022-07-29T01:43:23;15.10;77.10
64843;DHT22;51310;52.198;5.422;2022-07-29T01:46:06;15.10;77.60
64843;DHT22;51310;52.198;5.422;2022-07-29T01:48:45;15.10;77.40
64843;DHT22;51310;52.198;5.422;2022-07-29T01:51:33;15.00;78.50
64843;DHT22;51310;52.198;5.422;2022-07-29T01:56:48;15.00;79.40
64843;DHT22;51310;52.198;5.422;2022-07-29T01:59:17;14.90;80.20
64843;DHT22;51310;52.198;5.422;2022-07-29T02:01:47;15.70;80.70
64843;DHT22;51310;52.198;5.422;2022-07-29T02:04:16;14.90;80.80
64843;DHT22;51310;52.198;5.422;2022-07-29T02:06:44;14.90;80.60
64843;DHT22;51310;52.198;5.422;2022-07-29T02:09:15;14.90;80.90
64843;DHT22;51310;52.198;5.422;2022-07-29T02:11:48;14.90;80.70
64843;DHT22;51310;52.198;5.422;2022-07-29T02:14:20;14.90;81.60
64843;DHT22;51310;52.198;5.422;2022-07-29T02:16:51;14.90;81.20
64843;DHT22;51310;52.198;5.422;2022-07-29T02:19:21;14.90;81.20
64843;DHT22;51310;52.198;5.422;2022-07-29T02:21:52;14.80;82.00
64843;DHT22;51310;52.198;5.422;2022-07-29T02:24:22;14.80;82.30
64843;DHT22;51310;52.198;5.422;2022-07-29T02:26:52;14.80;82.70
64843;DHT22;51310;52.198;5.422;2022-07-29T02:29:23;14.90;82.70
64843;DHT22;51310;52.198;5.422;2022-07-29T02:31:52;15.00;82.40
64843;DHT22;51310;52.198;5.422;2022-07-29T02:34:21;14.90;82.30
64843;DHT22;51310;52.198;5.422;2022-07-29T02:36:49;14.90;83.10
64843;DHT22;51310;52.198;5.422;2022-07-29T02:39:17;16.10;84.00
64843;DHT22;51310;52.198;5.422;2022-07-29T02:41:57;14.90;83.30
64843;DHT22;51310;52.198;5.422;2022-07-29T02:44:29;14.90;83.50
64843;DHT22;51310;52.198;5.422;2022-07-29T02:47:16;14.90;83.50
64843;DHT22;51310;52.198;5.422;2022-07-29T02:49:57;14.90;83.40
64843;DHT22;51310;52.198;5.422;2022-07-29T02:52:54;14.90;83.90
64843;DHT22;51310;52.198;5.422;2022-07-29T02:55:30;14.90;83.90
64843;DHT22;51310;52.198;5.422;2022-07-29T03:00:37;14.80;84.50
64843;DHT22;51310;52.198;5.422;2022-07-29T03:03:11;15.90;85.50
64843;DHT22;51310;52.198;5.422;2022-07-29T03:05:39;14.80;85.10
64843;DHT22;51310;52.198;5.422;2022-07-29T03:08:06;14.90;85.40
64843;DHT22;51310;52.198;5.422;2022-07-29T03:10:37;14.80;84.60
64843;DHT22;51310;52.198;5.422;2022-07-29T03:13:08;14.80;85.20
64843;DHT22;51310;52.198;5.422;2022-07-29T03:15:35;14.80;86.40
64843;DHT22;51310;52.198;5.422;2022-07-29T03:18:02;14.80;86.60
64843;DHT22;51310;52.198;5.422;2022-07-29T03:20:29;15.50;86.20
64843;DHT22;51310;52.198;5.422;2022-07-29T03:22:55;14.80;85.90
64843;DHT22;51310;52.198;5.422;2022-07-29T03:25:21;14.80;86.90
64843;DHT22;51310;52.198;5.422;2022-07-29T03:27:48;15.80;87.60
64843;DHT22;51310;52.198;5.422;2022-07-29T03:30:15;14.80;87.90
64843;DHT22;51310;52.198;5.422;2022-07-29T03:32:41;14.80;87.20
64843;DHT22;51310;52.198;5.422;2022-07-29T03:35:07;14.80;87.00
64843;DHT22;51310;52.198;5.422;2022-07-29T03:37:33;14.70;87.50
64843;DHT22;51310;52.198;5.422;2022-07-29T03:40:03;15.80;88.50
64843;DHT22;51310;52.198;5.422;2022-07-29T03:42:33;14.70;88.40
64843;DHT22;51310;52.198;5.422;2022-07-29T03:45:06;14.70;88.30
64843;DHT22;51310;52.198;5.422;2022-07-29T03:47:39;14.70;89.40
64843;DHT22;51310;52.198;5.422;2022-07-29T03:50:14;14.90;89.00
64843;DHT22;51310;52.198;5.422;2022-07-29T03:52:41;14.60;89.20
64843;DHT22;51310;52.198;5.422;2022-07-29T03:55:08;14.70;88.90
64843;DHT22;51310;52.198;5.422;2022-07-29T03:57:35;14.60;87.60
64843;DHT22;51310;52.198;5.422;2022-07-29T04:00:04;16.60;89.10
64843;DHT22;51310;52.198;5.422;2022-07-29T04:02:32;14.70;88.30
64843;DHT22;51310;52.198;5.422;2022-07-29T04:04:58;15.90;88.60
64843;DHT22;51310;52.198;5.422;2022-07-29T04:07:25;14.70;87.20
64843;DHT22;51310;52.198;5.422;2022-07-29T04:09:51;16.60;89.00
64843;DHT22;51310;52.198;5.422;2022-07-29T04:12:16;14.70;87.30
64843;DHT22;51310;52.198;5.422;2022-07-29T04:14:42;14.80;88.00
64843;DHT22;51310;52.198;5.422;2022-07-29T04:17:08;14.70;87.60
64843;DHT22;51310;52.198;5.422;2022-07-29T04:19:34;14.80;87.90
64843;DHT22;51310;52.198;5.422;2022-07-29T04:22:00;14.90;87.90
64843;DHT22;51310;52.198;5.422;2022-07-29T04:24:27;14.90;87.50
64843;DHT22;51310;52.198;5.422;2022-07-29T04:26:53;14.80;86.80
64843;DHT22;51310;52.198;5.422;2022-07-29T04:29:19;14.80;87.70
64843;DHT22;51310;52.198;5.422;2022-07-29T04:31:45;14.80;89.20
64843;DHT22;51310;52.198;5.422;2022-07-29T04:34:12;14.80;89.50
64843;DHT22;51310;52.198;5.422;2022-07-29T04:36:38;14.80;89.50
64843;DHT22;51310;52.198;5.422;2022-07-29T04:39:04;14.70;90.30
64843;DHT22;51310;52.198;5.422;2022-07-29T04:41:30;14.80;90.30
64843;DHT22;51310;52.198;5.422;2022-07-29T04:43:56;14.80;90.40
64843;DHT22;51310;52.198;5.422;2022-07-29T04:46:22;14.90;89.80
64843;DHT22;51310;52.198;5.422;2022-07-29T04:48:48;14.90;89.30
64843;DHT22;51310;52.198;5.422;2022-07-29T04:51:17;14.90;88.50
64843;DHT22;51310;52.198;5.422;2022-07-29T04:53:43;15.00;87.70
64843;DHT22;51310;52.198;5.422;2022-07-29T04:56:09;15.00;86.00
64843;DHT22;51310;52.198;5.422;2022-07-29T04:58:35;15.00;86.60
64843;DHT22;51310;52.198;5.422;2022-07-29T05:01:02;16.70;85.70
64843;DHT22;51310;52.198;5.422;2022-07-29T05:03:28;15.10;86.20
64843;DHT22;51310;52.198;5.422;2022-07-29T05:05:55;15.10;85.80
64843;DHT22;51310;52.198;5.422;2022-07-29T05:08:21;15.10;85.70
64843;DHT22;51310;52.198;5.422;2022-07-29T05:10:47;15.00;85.10
64843;DHT22;51310;52.198;5.422;2022-07-29T05:13:13;15.10;86.20
64843;DHT22;51310;52.198;5.422;2022-07-29T05:15:39;15.00;85.60
64843;DHT22;51310;52.198;5.422;2022-07-29T05:18:05;15.00;85.70
64843;DHT22;51310;52.198;5.422;2022-07-29T05:20:31;15.00;86.20
64843;DHT22;51310;52.198;5.422;2022-07-29T05:22:59;15.00;86.20
64843;DHT22;51310;52.198;5.422;2022-07-29T05:25:27;15.00;85.90
64843;DHT22;51310;52.198;5.422;2022-07-29T05:27:54;15.00;85.70
64843;DHT22;51310;52.198;5.422;2022-07-29T05:30:21;15.20;87.90
64843;DHT22;51310;52.198;5.422;2022-07-29T05:32:47;15.00;87.60
64843;DHT22;51310;52.198;5.422;2022-07-29T05:35:14;15.00;89.00
64843;DHT22;51310;52.198;5.422;2022-07-29T05:37:42;17.00;90.00
64843;DHT22;51310;52.198;5.422;2022-07-29T05:40:08;15.00;89.00
64843;DHT22;51310;52.198;5.422;2022-07-29T05:42:34;15.10;89.00
64843;DHT22;51310;52.198;5.422;2022-07-29T05:45:01;15.00;88.20
64843;DHT22;51310;52.198;5.422;2022-07-29T05:47:28;14.20;87.70
64843;DHT22;51310;52.198;5.422;2022-07-29T05:49:54;15.20;86.90
64843;DHT22;51310;52.198;5.422;2022-07-29T05:52:20;15.20;86.70
64843;DHT22;51310;52.198;5.422;2022-07-29T05:54:46;15.10;86.70
64843;DHT22;51310;52.198;5.422;2022-07-29T05:57:17;15.30;86.80
64843;DHT22;51310;52.198;5.422;2022-07-29T05:59:45;15.40;86.80
64843;DHT22;51310;52.198;5.422;2022-07-29T06:02:11;15.50;85.00
64843;DHT22;51310;52.198;5.422;2022-07-29T06:04:37;15.70;85.00
64843;DHT22;51310;52.198;5.422;2022-07-29T06:07:03;15.70;84.40
64843;DHT22;51310;52.198;5.422;2022-07-29T06:09:29;15.70;84.20
64843;DHT22;51310;52.198;5.422;2022-07-29T06:11:55;15.90;83.00
64843;DHT22;51310;52.198;5.422;2022-07-29T06:14:22;16.20;81.50
64843;DHT22;51310;52.198;5.422;2022-07-29T06:16:48;16.40;78.90
64843;DHT22;51310;52.198;5.422;2022-07-29T06:19:14;16.50;75.90
64843;DHT22;51310;52.198;5.422;2022-07-29T06:21:43;16.70;75.50
64843;DHT22;51310;52.198;5.422;2022-07-29T06:24:11;16.80;74.50
64843;DHT22;51310;52.198;5.422;2022-07-29T06:26:39;16.50;74.30
64843;DHT22;51310;52.198;5.422;2022-07-29T06:29:08;16.60;75.50
64843;DHT22;51310;52.198;5.422;2022-07-29T06:31:40;16.60;74.90
64843;DHT22;51310;52.198;5.422;2022-07-29T06:34:06;18.20;76.00
64843;DHT22;51310;52.198;5.422;2022-07-29T06:36:35;17.70;75.60
64843;DHT22;51310;52.198;5.422;2022-07-29T06:39:07;16.40;76.00
64843;DHT22;51310;52.198;5.422;2022-07-29T06:41:33;16.30;77.10
64843;DHT22;51310;52.198;5.422;2022-07-29T06:43:59;16.80;76.50
64843;DHT22;51310;52.198;5.422;2022-07-29T06:46:25;16.30;75.70
64843;DHT22;51310;52.198;5.422;2022-07-29T06:48:52;17.80;77.00
64843;DHT22;51310;52.198;5.422;2022-07-29T06:51:19;16.40;77.00
64843;DHT22;51310;52.198;5.422;2022-07-29T06:53:46;16.30;76.20
64843;DHT22;51310;52.198;5.422;2022-07-29T06:56:11;16.10;77.30
64843;DHT22;51310;52.198;5.422;2022-07-29T06:58:39;16.10;78.50
64843;DHT22;51310;52.198;5.422;2022-07-29T07:01:06;16.20;79.30
64843;DHT22;51310;52.198;5.422;2022-07-29T07:03:32;16.40;77.60
64843;DHT22;51310;52.198;5.422;2022-07-29T07:05:58;16.50;76.90
64843;DHT22;51310;52.198;5.422;2022-07-29T07:08:25;16.40;77.30
64843;DHT22;51310;52.198;5.422;2022-07-29T07:10:51;16.50;78.60
64843;DHT22;51310;52.198;5.422;2022-07-29T07:13:18;16.50;77.10
64843;DHT22;51310;52.198;5.422;2022-07-29T07:15:45;17.80;78.20
64843;DHT22;51310;52.198;5.422;2022-07-29T07:18:13;16.60;77.50
64843;DHT22;51310;52.198;5.422;2022-07-29T07:20:40;16.90;76.40
64843;DHT22;51310;52.198;5.422;2022-07-29T07:23:06;16.80;75.10
64843;DHT22;51310;52.198;5.422;2022-07-29T07:25:33;17.90;74.70
64843;DHT22;51310;52.198;5.422;2022-07-29T07:27:59;17.50;74.00
64843;DHT22;51310;52.198;5.422;2022-07-29T07:30:25;17.60;70.70
64843;DHT22;51310;52.198;5.422;2022-07-29T07:32:52;17.90;69.70
64843;DHT22;51310;52.198;5.422;2022-07-29T07:35:19;18.00;69.60
64843;DHT22;51310;52.198;5.422;2022-07-29T07:37:45;18.10;69.40
64843;DHT22;51310;52.198;5.422;2022-07-29T07:40:11;18.40;68.30
64843;DHT22;51310;52.198;5.422;2022-07-29T07:42:39;18.50;66.20
64843;DHT22;51310;52.198;5.422;2022-07-29T07:45:06;18.70;66.70
64843;DHT22;51310;52.198;5.422;2022-07-29T07:47:37;18.60;66.60
64843;DHT22;51310;52.198;5.422;2022-07-29T07:50:09;18.50;66.80
64843;DHT22;51310;52.198;5.422;2022-07-29T07:52:47;18.50;67.70
64843;DHT22;51310;52.198;5.422;2022-07-29T07:55:15;18.40;67.60
64843;DHT22;51310;52.198;5.422;2022-07-29T07:57:41;18.10;67.50
64843;DHT22;51310;52.198;5.422;2022-07-29T08:00:08;18.10;68.70
64843;DHT22;51310;52.198;5.422;2022-07-29T08:02:34;18.30;68.40
64843;DHT22;51310;52.198;5.422;2022-07-29T08:05:00;18.20;69.10
64843;DHT22;51310;52.198;5.422;2022-07-29T08:07:26;18.40;69.70
64843;DHT22;51310;52.198;5.422;2022-07-29T08:09:52;18.60;70.00
64843;DHT22;51310;52.198;5.422;2022-07-29T08:12:18;18.20;71.10
64843;DHT22;51310;52.198;5.422;2022-07-29T08:14:43;19.00;70.90
64843;DHT22;51310;52.198;5.422;2022-07-29T08:17:09;17.90;71.60
64843;DHT22;51310;52.198;5.422;2022-07-29T08:19:35;17.80;72.00
64843;DHT22;51310;52.198;5.422;2022-07-29T08:22:02;17.90;72.10
64843;DHT22;51310;52.198;5.422;2022-07-29T08:24:28;17.80;71.10
64843;DHT22;51310;52.198;5.422;2022-07-29T08:27:12;18.20;71.50
64843;DHT22;51310;52.198;5.422;2022-07-29T08:29:39;19.40;72.90
64843;DHT22;51310;52.198;5.422;2022-07-29T08:32:05;18.30;72.40
64843;DHT22;51310;52.198;5.422;2022-07-29T08:34:32;18.10;71.50
64843;DHT22;51310;52.198;5.422;2022-07-29T08:36:58;18.00;72.40
64843;DHT22;51310;52.198;5.422;2022-07-29T08:39:24;18.40;71.40
64843;DHT22;51310;52.198;5.422;2022-07-29T08:41:51;18.70;69.40
64843;DHT22;51310;52.198;5.422;2022-07-29T08:44:18;18.70;69.50
64843;DHT22;51310;52.198;5.422;2022-07-29T08:46:45;19.00;70.00
64843;DHT22;51310;52.198;5.422;2022-07-29T08:49:11;19.20;67.80
64843;DHT22;51310;52.198;5.422;2022-07-29T08:51:39;19.20;68.60
64843;DHT22;51310;52.198;5.422;2022-07-29T08:54:08;19.20;68.10
64843;DHT22;51310;52.198;5.422;2022-07-29T08:56:36;19.00;67.90
64843;DHT22;51310;52.198;5.422;2022-07-29T08:59:04;19.40;67.00
64843;DHT22;51310;52.198;5.422;2022-07-29T09:01:33;19.30;68.30
64843;DHT22;51310;52.198;5.422;2022-07-29T09:04:04;20.20;67.80
64843;DHT22;51310;52.198;5.422;2022-07-29T09:06:39;19.40;68.30
64843;DHT22;51310;52.198;5.422;2022-07-29T09:09:09;19.50;67.20
64843;DHT22;51310;52.198;5.422;2022-07-29T09:11:36;19.40;67.30
64843;DHT22;51310;52.198;5.422;2022-07-29T09:14:03;19.40;68.30
64843;DHT22;51310;52.198;5.422;2022-07-29T09:17:04;20.70;66.20
64843;DHT22;51310;52.198;5.422;2022-07-29T09:19:34;19.70;66.40
64843;DHT22;51310;52.198;5.422;2022-07-29T09:22:06;19.80;65.40
64843;DHT22;51310;52.198;5.422;2022-07-29T09:24:42;19.80;62.70
64843;DHT22;51310;52.198;5.422;2022-07-29T09:27:24;20.00;64.60
64843;DHT22;51310;52.198;5.422;2022-07-29T09:30:08;20.10;64.70
64843;DHT22;51310;52.198;5.422;2022-07-29T09:32:57;20.20;64.90
64843;DHT22;51310;52.198;5.422;2022-07-29T09:35:29;20.10;65.20
64843;DHT22;51310;52.198;5.422;2022-07-29T09:37:56;20.10;64.60
64843;DHT22;51310;52.198;5.422;2022-07-29T09:40:24;20.20;63.30
64843;DHT22;51310;52.198;5.422;2022-07-29T09:42:52;20.30;62.20
64843;DHT22;51310;52.198;5.422;2022-07-29T09:45:30;20.20;62.00
64843;DHT22;51310;52.198;5.422;2022-07-29T09:47:59;20.00;60.00
64843;DHT22;51310;52.198;5.422;2022-07-29T09:50:46;19.90;62.60
64843;DHT22;51310;52.198;5.422;2022-07-29T09:53:34;20.10;63.20
64843;DHT22;51310;52.198;5.422;2022-07-29T09:56:03;20.20;62.40
64843;DHT22;51310;52.198;5.422;2022-07-29T09:58:30;20.10;63.40
64843;DHT22;51310;52.198;5.422;2022-07-29T10:00:59;20.40;62.80
64843;DHT22;51310;52.198;5.422;2022-07-29T10:03:25;20.30;64.40
64843;DHT22;51310;52.198;5.422;2022-07-29T10:06:10;20.30;64.40
64843;DHT22;51310;52.198;5.422;2022-07-29T10:08:38;20.10;62.10
64843;DHT22;51310;52.198;5.422;2022-07-29T10:11:12;19.80;62.50
64843;DHT22;51310;52.198;5.422;2022-07-29T10:13:41;19.80;64.00
64843;DHT22;51310;52.198;5.422;2022-07-29T10:16:09;20.70;64.50
64843;DHT22;51310;52.198;5.422;2022-07-29T10:18:38;20.00;62.90
64843;DHT22;51310;52.198;5.422;2022-07-29T10:21:06;20.30;63.00
64843;DHT22;51310;52.198;5.422;2022-07-29T10:23:34;20.40;62.60
64843;DHT22;51310;52.198;5.422;2022-07-29T10:26:02;21.10;61.60
64843;DHT22;51310;52.198;5.422;2022-07-29T10:28:31;20.20;63.90
64843;DHT22;51310;52.198;5.422;2022-07-29T10:31:04;20.40;65.90
64843;DHT22;51310;52.198;5.422;2022-07-29T10:34:03;23.30;65.90
64843;DHT22;51310;52.198;5.422;2022-07-29T10:36:54;20.70;63.50
64843;DHT22;51310;52.198;5.422;2022-07-29T10:42:28;22.40;59.10
64843;DHT22;51310;52.198;5.422;2022-07-29T10:44:55;21.50;58.40
64843;DHT22;51310;52.198;5.422;2022-07-29T10:47:26;22.40;59.60
64843;DHT22;51310;52.198;5.422;2022-07-29T10:49:59;21.50;58.50
64843;DHT22;51310;52.198;5.422;2022-07-29T10:55:31;21.40;58.60
64843;DHT22;51310;52.198;5.422;2022-07-29T10:58:12;21.70;58.20
64843;DHT22;51310;52.198;5.422;2022-07-29T11:00:39;21.70;58.40
64843;DHT22;51310;52.198;5.422;2022-07-29T11:03:05;21.60;57.30
64843;DHT22;51310;52.198;5.422;2022-07-29T11:05:51;21.90;56.20
64843;DHT22;51310;52.198;5.422;2022-07-29T11:08:20;22.00;58.20
64843;DHT22;51310;52.198;5.422;2022-07-29T11:10:50;21.80;58.60
64843;DHT22;51310;52.198;5.422;2022-07-29T11:16:09;22.00;57.10
64843;DHT22;51310;52.198;5.422;2022-07-29T11:18:35;21.80;56.80
64843;DHT22;51310;52.198;5.422;2022-07-29T11:21:01;22.10;56.50
64843;DHT22;51310;52.198;5.422;2022-07-29T11:23:29;22.00;56.90
64843;DHT22;51310;52.198;5.422;2022-07-29T11:28:57;23.50;55.70
64843;DHT22;51310;52.198;5.422;2022-07-29T11:31:33;22.20;54.30
64843;DHT22;51310;52.198;5.422;2022-07-29T11:34:36;22.20;54.70
64843;DHT22;51310;52.198;5.422;2022-07-29T11:39:36;21.90;55.50
64843;DHT22;51310;52.198;5.422;2022-07-29T11:44:58;22.10;55.00
64843;DHT22;51310;52.198;5.422;2022-07-29T11:47:26;21.90;55.70
64843;DHT22;51310;52.198;5.422;2022-07-29T11:49:55;22.20;57.80
64843;DHT22;51310;52.198;5.422;2022-07-29T11:52:24;22.40;55.60
64843;DHT22;51310;52.198;5.422;2022-07-29T11:55:04;22.10;55.00
64843;DHT22;51310;52.198;5.422;2022-07-29T14:01:26;23.80;46.20
64843;DHT22;51310;52.198;5.422;2022-07-29T14:03:53;23.80;48.30
64843;DHT22;51310;52.198;5.422;2022-07-29T14:06:19;23.70;49.60
64843;DHT22;51310;52.198;5.422;2022-07-29T14:08:47;23.60;48.70
64843;DHT22;51310;52.198;5.422;2022-07-29T14:11:15;23.70;49.70
64843;DHT22;51310;52.198;5.422;2022-07-29T14:13:41;23.80;49.20
64843;DHT22;51310;52.198;5.422;2022-07-29T14:16:07;24.10;48.60
64843;DHT22;51310;52.198;5.422;2022-07-29T14:18:33;23.90;49.60
64843;DHT22;51310;52.198;5.422;2022-07-29T14:20:59;23.70;49.00
64843;DHT22;51310;52.198;5.422;2022-07-29T14:23:25;23.70;49.60
64843;DHT22;51310;52.198;5.422;2022-07-29T14:25:51;23.70;49.70
64843;DHT22;51310;52.198;5.422;2022-07-29T14:28:17;24.00;48.90
64843;DHT22;51310;52.198;5.422;2022-07-29T14:30:45;24.00;49.30
64843;DHT22;51310;52.198;5.422;2022-07-29T14:33:11;23.90;48.90
64843;DHT22;51310;52.198;5.422;2022-07-29T14:35:37;24.20;47.30
64843;DHT22;51310;52.198;5.422;2022-07-29T14:38:03;24.10;47.50
64843;DHT22;51310;52.198;5.422;2022-07-29T14:40:29;24.20;47.70
64843;DHT22;51310;52.198;5.422;2022-07-29T14:42:55;24.20;47.30
64843;DHT22;51310;52.198;5.422;2022-07-29T14:45:21;24.20;48.50
64843;DHT22;51310;52.198;5.422;2022-07-29T14:47:48;24.20;48.00
64843;DHT22;51310;52.198;5.422;2022-07-29T14:50:16;23.80;48.30
64843;DHT22;51310;52.198;5.422;2022-07-29T14:52:42;24.00;49.90
64843;DHT22;51310;52.198;5.422;2022-07-29T14:55:08;24.20;47.30
64843;DHT22;51310;52.198;5.422;2022-07-29T14:57:34;24.30;47.50
64843;DHT22;51310;52.198;5.422;2022-07-29T15:00:00;24.20;47.80
64843;DHT22;51310;52.198;5.422;2022-07-29T15:02:29;24.20;47.90
64843;DHT22;51310;52.198;5.422;2022-07-29T15:04:55;24.30;46.00
64843;DHT22;51310;52.198;5.422;2022-07-29T15:07:21;24.30;44.10
64843;DHT22;51310;52.198;5.422;2022-07-29T15:09:46;25.40;45.60
64843;DHT22;51310;52.198;5.422;2022-07-29T15:12:15;24.20;45.80
64843;DHT22;51310;52.198;5.422;2022-07-29T15:14:41;24.20;45.40
64843;DHT22;51310;52.198;5.422;2022-07-29T15:17:07;24.20;43.90
64843;DHT22;51310;52.198;5.422;2022-07-29T15:19:34;24.20;42.10
64843;DHT22;51310;52.198;5.422;2022-07-29T15:22:02;24.00;41.70
64843;DHT22;51310;52.198;5.422;2022-07-29T15:24:30;24.10;42.10
64843;DHT22;51310;52.198;5.422;2022-07-29T15:26:56;24.40;39.10
64843;DHT22;51310;52.198;5.422;2022-07-29T15:29:21;24.30;39.60
64843;DHT22;51310;52.198;5.422;2022-07-29T15:31:47;24.20;40.40
64843;DHT22;51310;52.198;5.422;2022-07-29T15:34:16;24.00;41.30
64843;DHT22;51310;52.198;5.422;2022-07-29T15:36:46;23.90;40.60
64843;DHT22;51310;52.198;5.422;2022-07-29T15:39:12;23.90;41.80
64843;DHT22;51310;52.198;5.422;2022-07-29T15:41:38;23.90;40.60
64843;DHT22;51310;52.198;5.422;2022-07-29T15:44:03;24.60;41.90
64843;DHT22;51310;52.198;5.422;2022-07-29T15:46:29;24.00;39.00
64843;DHT22;51310;52.198;5.422;2022-07-29T15:49:14;24.00;39.50
64843;DHT22;51310;52.198;5.422;2022-07-29T15:51:40;24.00;40.70
64843;DHT22;51310;52.198;5.422;2022-07-29T15:54:06;23.80;39.60
64843;DHT22;51310;52.198;5.422;2022-07-29T15:56:32;23.70;40.60
64843;DHT22;51310;52.198;5.422;2022-07-29T15:58:58;24.10;40.80
64843;DHT22;51310;52.198;5.422;2022-07-29T16:01:24;24.00;38.70
64843;DHT22;51310;52.198;5.422;2022-07-29T16:03:51;24.00;37.60
64843;DHT22;51310;52.198;5.422;2022-07-29T16:06:17;24.00;38.60
64843;DHT22;51310;52.198;5.422;2022-07-29T16:08:46;24.10;36.60
64843;DHT22;51310;52.198;5.422;2022-07-29T16:11:12;24.20;36.70
64843;DHT22;51310;52.198;5.422;2022-07-29T16:13:38;25.50;37.90
64843;DHT22;51310;52.198;5.422;2022-07-29T16:16:04;24.30;36.60
64843;DHT22;51310;52.198;5.422;2022-07-29T16:18:33;24.10;36.80
64843;DHT22;51310;52.198;5.422;2022-07-29T16:20:59;24.00;38.00
64843;DHT22;51310;52.198;5.422;2022-07-29T16:23:25;24.20;34.60
64843;DHT22;51310;52.198;5.422;2022-07-29T16:25:51;24.10;35.60
64843;DHT22;51310;52.198;5.422;2022-07-29T16:28:16;24.20;35.40
64843;DHT22;51310;52.198;5.422;2022-07-29T16:30:45;24.10;36.70
64843;DHT22;51310;52.198;5.422;2022-07-29T16:33:15;24.00;37.10
64843;DHT22;51310;52.198;5.422;2022-07-29T16:35:42;24.00;36.90
64843;DHT22;51310;52.198;5.422;2022-07-29T16:38:07;24.10;35.20
64843;DHT22;51310;52.198;5.422;2022-07-29T16:40:33;24.00;36.00
64843;DHT22;51310;52.198;5.422;2022-07-29T16:42:59;23.90;35.70
64843;DHT22;51310;52.198;5.422;2022-07-29T16:45:25;24.20;35.10
64843;DHT22;51310;52.198;5.422;2022-07-29T16:47:53;24.40;35.60
64843;DHT22;51310;52.198;5.422;2022-07-29T16:50:19;24.90;35.20
64843;DHT22;51310;52.198;5.422;2022-07-29T16:52:50;24.80;34.30
64843;DHT22;51310;52.198;5.422;2022-07-29T16:55:16;25.10;33.60
64843;DHT22;51310;52.198;5.422;2022-07-29T16:57:42;25.70;33.50
64843;DHT22;51310;52.198;5.422;2022-07-29T17:00:09;25.00;33.40
64843;DHT22;51310;52.198;5.422;2022-07-29T17:02:36;24.90;33.40
64843;DHT22;51310;52.198;5.422;2022-07-29T17:05:04;25.00;32.60
64843;DHT22;51310;52.198;5.422;2022-07-29T17:07:35;25.00;31.60
64843;DHT22;51310;52.198;5.422;2022-07-29T17:10:01;25.10;30.80
64843;DHT22;51310;52.198;5.422;2022-07-29T17:12:30;25.00;31.30
64843;DHT22;51310;52.198;5.422;2022-07-29T17:14:56;25.10;32.00
64843;DHT22;51310;52.198;5.422;2022-07-29T17:17:22;25.10;31.40
64843;DHT22;51310;52.198;5.422;2022-07-29T17:19:48;25.10;31.70
64843;DHT22;51310;52.198;5.422;2022-07-29T17:22:14;26.50;31.80
64843;DHT22;51310;52.198;5.422;2022-07-29T17:24:40;25.10;31.50
64843;DHT22;51310;52.198;5.422;2022-07-29T17:27:07;25.10;31.40
64843;DHT22;51310;52.198;5.422;2022-07-29T17:29:34;25.00;32.60
64843;DHT22;51310;52.198;5.422;2022-07-29T17:32:00;25.20;33.20
64843;DHT22;51310;52.198;5.422;2022-07-29T17:34:26;24.90;32.80
64843;DHT22;51310;52.198;5.422;2022-07-29T17:36:52;25.80;33.90
64843;DHT22;51310;52.198;5.422;2022-07-29T17:39:18;25.10;33.00
64843;DHT22;51310;52.198;5.422;2022-07-29T17:41:44;25.00;32.50
64843;DHT22;51310;52.198;5.422;2022-07-29T17:44:11;24.90;33.50
64843;DHT22;51310;52.198;5.422;2022-07-29T17:46:38;25.00;33.70
64843;DHT22;51310;52.198;5.422;2022-07-29T17:49:05;25.10;33.90
64843;DHT22;51310;52.198;5.422;2022-07-29T17:51:31;24.90;35.10
64843;DHT22;51310;52.198;5.422;2022-07-29T17:53:57;24.70;35.80
64843;DHT22;51310;52.198;5.422;2022-07-29T17:56:27;24.50;37.00
64843;DHT22;51310;52.198;5.422;2022-07-29T17:58:55;24.50;36.90
64843;DHT22;51310;52.198;5.422;2022-07-29T18:01:26;24.60;37.20
64843;DHT22;51310;52.198;5.422;2022-07-29T18:03:52;24.60;37.30
64843;DHT22;51310;52.198;5.422;2022-07-29T18:06:18;24.80;37.40
64843;DHT22;51310;52.198;5.422;2022-07-29T18:11:12;24.20;38.00
64843;DHT22;51310;52.198;5.422;2022-07-29T18:13:41;24.20;39.20
64843;DHT22;51310;52.198;5.422;2022-07-29T18:16:13;24.20;39.80